Time;durP1;ratioP1;P1;durP2;ratioP2;P2;SDS_P1;SDS_P2;PMS_P1;PMS_P2;Temp;Humidity;BMP_temperature;BMP_pressure;BME280_temperature;BME280_humidity;BME280_pressure;Samples;Min_cycle;Max_cycle;Signal;HPM_P1;HPM_P2
2022/01/08 00:02:40;;;;;;;5.85;2.70;;;;;;;4.63;100.00;99961.69;4960964;28;20221;-76
2022/01/08 00:05:24;;;;;;;3.13;2.10;;;;;;;4.77;100.00;99945.63;4975249;28;20092;-76
2022/01/08 00:08:08;;;;;;;;;;;;;;;4.68;100.00;99937.59;4961004;28;20070;-75
2022/01/08 00:10:53;;;;;;;7.60;2.20;;;;;;;4.63;100.00;99931.78;4960810;28;20035;-76
2022/01/08 00:13:39;;;;;;;4.43;2.22;;;;;;;4.71;100.00;99932.06;4947320;28;20411;-76
2022/01/08 00:16:24;;;;;;;4.20;1.90;;;;;;;4.75;100.00;99922.94;4975130;28;20513;-76
2022/01/08 00:19:07;;;;;;;9.38;2.40;;;;;;;4.79;100.00;99921.78;4975239;28;20049;-76
2022/01/08 00:21:51;;;;;;;5.05;2.22;;;;;;;4.84;100.00;99927.53;4960882;28;20172;-76
2022/01/08 00:24:35;;;;;;;6.10;2.42;;;;;;;4.67;100.00;99914.78;4960609;28;20052;-75
2022/01/08 00:27:20;;;;;;;;;;;;;;;4.70;100.00;99909.25;4960648;28;20049;-76
2022/01/08 00:30:05;;;;;;;5.75;2.20;;;;;;;4.61;100.00;99904.69;4960273;28;20069;-76
2022/01/08 00:32:49;;;;;;;4.95;2.22;;;;;;;4.71;100.00;99895.97;4960211;28;20073;-76
2022/01/08 00:35:33;;;;;;;4.90;2.05;;;;;;;4.77;100.00;99902.56;4974761;28;20053;-76
2022/01/08 00:38:17;;;;;;;6.43;2.28;;;;;;;4.83;100.00;99894.16;4975286;28;20049;-76
2022/01/08 00:41:00;;;;;;;4.07;1.90;;;;;;;4.83;100.00;99891.53;4974837;28;20069;-76
2022/01/08 00:43:44;;;;;;;4.95;1.60;;;;;;;4.80;100.00;99878.56;4974915;28;20138;-76
2022/01/08 00:46:28;;;;;;;5.82;2.20;;;;;;;4.48;100.00;99882.81;4959838;28;20054;-76
2022/01/08 00:49:12;;;;;;;6.65;2.60;;;;;;;4.25;100.00;99876.59;4974789;28;20045;-76
2022/01/08 00:51:56;;;;;;;8.20;2.63;;;;;;;4.10;100.00;99871.63;4946428;28;20057;-75
2022/01/08 00:54:40;;;;;;;11.05;3.80;;;;;;;3.84;100.00;99876.16;4960012;28;20045;-75
2022/01/08 00:57:24;;;;;;;10.00;3.78;;;;;;;3.83;100.00;99863.09;4959743;28;20054;-76
2022/01/08 01:00:10;;;;;;;7.75;3.72;;;;;;;3.78;100.00;99857.31;4959625;28;20158;-76
2022/01/08 01:02:54;;;;;;;10.82;3.90;;;;;;;3.75;100.00;99839.94;4959963;28;20049;-76
2022/01/08 01:05:38;;;;;;;;;;;;;;;3.72;100.00;99836.66;4960081;28;20053;-76
2022/01/08 01:08:22;;;;;;;12.07;4.30;;;;;;;3.71;100.00;99837.63;4974725;28;19979;-76
2022/01/08 01:11:06;;;;;;;;;;;;;;;3.76;100.00;99814.41;4960227;28;20049;-76
2022/01/08 01:13:50;;;;;;;13.27;5.15;;;;;;;3.76;100.00;99809.16;4974357;28;19920;-75
2022/01/08 01:16:34;;;;;;;10.60;4.45;;;;;;;3.77;100.00;99805.56;4959689;28;20065;-76
2022/01/08 01:19:18;;;;;;;;;;;;;;;3.79;100.00;99799.22;4960057;28;20530;-76
2022/01/08 01:22:03;;;;;;;9.65;3.65;;;;;;;3.82;100.00;99796.34;4946214;28;20282;-76
2022/01/08 01:24:49;;;;;;;9.02;3.47;;;;;;;3.82;100.00;99803.41;4959770;28;20069;-76
2022/01/08 01:27:54;;;;;;;8.25;3.83;;;;;;;3.87;100.00;99796.00;4959385;28;20056;-76
2022/01/08 01:31:03;;;;;;;8.32;3.22;;;;;;;3.90;100.00;99801.03;4962698;28;20089;-76
2022/01/08 01:48:58;;;;;;;16.90;4.65;;;;;;;3.91;100.00;99779.00;4973913;28;20229;-77
2022/01/08 01:51:43;;;;;;;;;;;;;;;3.96;100.00;99790.06;4960151;28;20126;-76
2022/01/08 01:54:31;;;;;;;17.70;5.07;;;;;;;3.91;100.00;99771.94;4959395;28;19969;-76
2022/01/08 01:57:16;;;;;;;15.43;5.45;;;;;;;3.89;100.00;99762.44;4945561;28;20406;-76
2022/01/08 02:00:00;;;;;;;15.90;4.72;;;;;;;3.88;100.00;99752.88;4945869;28;20070;-76
2022/01/08 02:02:44;;;;;;;11.55;4.70;;;;;;;3.88;100.00;99755.50;4959329;28;20128;-76
2022/01/08 02:05:28;;;;;;;;;;;;;;;3.89;100.00;99746.63;4959359;28;20422;-77
2022/01/08 02:08:13;;;;;;;13.75;5.38;;;;;;;3.85;100.00;99750.47;4972865;28;19924;-76
2022/01/08 02:10:57;;;;;;;15.10;4.40;;;;;;;3.91;100.00;99739.44;4959457;28;20085;-76
2022/01/08 02:13:41;;;;;;;14.20;7.28;;;;;;;3.84;100.00;99743.50;4959241;28;20058;-76
2022/01/08 02:16:26;;;;;;;18.38;6.55;;;;;;;3.83;100.00;99747.09;4973732;28;20438;-76
2022/01/08 02:19:10;;;;;;;21.00;6.18;;;;;;;3.84;100.00;99738.25;4959368;28;20124;-76
2022/01/08 02:21:56;;;;;;;15.13;5.05;;;;;;;3.86;100.00;99725.78;4959162;28;20057;-77
2022/01/08 02:24:44;;;;;;;13.93;5.63;;;;;;;3.76;100.00;99730.06;4945544;28;20093;-76
2022/01/08 02:27:28;;;;;;;11.75;6.47;;;;;;;3.62;100.00;99743.41;4945458;28;20106;-76
2022/01/08 02:30:12;;;;;;;7.53;3.97;;;;;;;3.68;100.00;99740.31;4959041;28;20046;-75
2022/01/08 02:32:56;;;;;;;12.05;5.00;;;;;;;3.61;100.00;99725.91;4945350;28;20050;-74
2022/01/08 02:35:40;;;;;;;;;;;;;;;3.58;100.00;99731.41;4973940;28;20125;-74
2022/01/08 02:38:24;;;;;;;11.35;5.40;;;;;;;3.57;100.00;99709.47;4958845;28;19984;-75
2022/01/08 02:41:09;;;;;;;11.65;5.90;;;;;;;3.57;100.00;99712.13;4959217;28;20085;-75
2022/01/08 02:43:53;;;;;;;11.15;5.30;;;;;;;3.61;100.00;99715.38;4973322;28;20505;-75
2022/01/08 02:46:39;;;;;;;12.05;5.45;;;;;;;3.59;100.00;99697.06;4945273;28;20049;-75
2022/01/08 02:49:23;;;;;;;11.30;5.53;;;;;;;3.54;100.00;99703.63;4973775;28;20124;-75
2022/01/08 02:52:10;;;;;;;11.18;5.10;;;;;;;3.53;100.00;99707.22;4973746;28;20453;-75
2022/01/08 02:54:54;;;;;;;12.60;5.63;;;;;;;3.51;100.00;99693.28;4961321;28;20530;-75
2022/01/08 02:57:38;;;;;;;11.05;5.30;;;;;;;3.48;100.00;99693.53;4976630;28;20522;-75
2022/01/08 03:00:23;;;;;;;11.35;4.95;;;;;;;3.52;100.00;99694.97;4961927;28;20070;-75
2022/01/08 03:03:06;;;;;;;10.10;4.93;;;;;;;3.50;100.00;99696.88;4961909;28;20049;-75
2022/01/08 03:05:50;;;;;;;11.30;6.00;;;;;;;3.47;100.00;99697.13;4976618;28;20061;-74
2022/01/08 03:08:35;;;;;;;17.67;6.55;;;;;;;3.48;100.00;99701.44;4961975;28;20054;-75
2022/01/08 03:11:18;;;;;;;;;;;;;;;3.43;100.00;99707.03;4962450;28;20557;-75
2022/01/08 03:14:02;;;;;;;12.13;6.18;;;;;;;3.49;100.00;99705.75;4962252;28;19965;-75
2022/01/08 03:16:46;;;;;;;;;;;;;;;3.45;100.00;99705.13;4962289;28;20558;-75
2022/01/08 03:19:30;;;;;;;9.32;4.95;;;;;;;3.43;100.00;99716.75;4961553;28;19925;-75
2022/01/08 03:22:14;;;;;;;;;;;;;;;3.45;100.00;99714.84;4962208;28;20189;-75
2022/01/08 03:25:01;;;;;;;11.20;6.15;;;;;;;3.46;100.00;99711.25;4948474;28;20481;-75
2022/01/08 03:27:48;;;;;;;15.05;7.25;;;;;;;3.41;100.00;99708.09;4961372;28;20414;-75
2022/01/08 03:30:34;;;;;;;15.10;7.65;;;;;;;3.41;100.00;99708.09;4976043;28;20049;-74
2022/01/08 03:33:17;;;;;;;17.75;7.90;;;;;;;3.43;100.00;99714.13;4948009;28;20355;-75
2022/01/08 03:36:01;;;;;;;;;;;;;;;3.45;100.00;99713.03;4961853;28;20507;-75
2022/01/08 03:38:45;;;;;;;17.88;8.18;;;;;;;3.45;100.00;99712.22;4976101;28;19924;-75
2022/01/08 03:41:29;;;;;;;16.63;7.13;;;;;;;3.52;100.00;99732.72;4961472;28;20149;-75
2022/01/08 03:44:13;;;;;;;;;;;;;;;3.47;100.00;99728.75;4961862;28;20050;-75
2022/01/08 03:47:21;;;;;;;17.77;8.02;;;;;;;3.45;100.00;99733.28;4947754;28;19936;-75
2022/01/08 03:50:02;;;;;;;14.00;6.90;;;;;;;3.42;100.00;99742.25;4976222;28;20089;-75
2022/01/08 03:52:46;;;;;;;16.45;8.00;;;;;;;3.37;100.00;99754.94;4947447;28;20049;-75
2022/01/08 03:55:30;;;;;;;;;;;;;;;3.36;100.00;99753.22;4975935;28;20415;-75
2022/01/08 03:58:13;;;;;;;15.18;7.82;;;;;;;3.29;100.00;99751.16;4961332;28;19960;-75
2022/01/08 04:00:57;;;;;;;17.20;7.55;;;;;;;3.30;100.00;99756.31;4975814;28;20053;-75
2022/01/08 04:03:41;;;;;;;15.23;7.00;;;;;;;3.24;100.00;99761.19;4960779;28;20418;-75
2022/01/08 04:06:25;;;;;;;13.95;5.68;;;;;;;3.20;100.00;99772.88;4960567;28;20167;-74
2022/01/08 04:09:09;;;;;;;13.10;5.97;;;;;;;3.23;100.00;99778.78;4975857;28;20467;-75
2022/01/08 04:11:55;;;;;;;;;;;;;;;3.27;100.00;99776.78;4961040;28;20513;-75
2022/01/08 04:14:52;;;;;;;10.30;5.70;;;;;;;3.26;100.00;99783.00;4975471;28;20013;-75
2022/01/08 04:17:36;;;;;;;13.40;5.40;;;;;;;3.20;100.00;99793.94;4960631;28;20189;-74
2022/01/08 04:20:20;;;;;;;;;;;;;;;3.22;100.00;99794.69;4960748;28;20053;-75
2022/01/08 04:23:05;;;;;;;13.10;5.63;;;;;;;3.25;100.00;99797.13;4960516;28;19949;-75
2022/01/08 04:25:49;;;;;;;;;;;;;;;3.23;100.00;99794.59;4960669;28;20097;-74
2022/01/08 04:28:32;;;;;;;16.27;6.40;;;;;;;3.27;100.00;99816.28;4960528;28;19984;-75
2022/01/08 04:31:16;;;;;;;;;;;;;;;3.34;100.00;99828.91;4960966;28;20094;-75
2022/01/08 04:34:00;;;;;;;16.77;6.72;;;;;;;3.32;100.00;99837.84;4974944;28;19929;-74
2022/01/08 04:36:44;;;;;;;17.50;6.75;;;;;;;3.33;100.00;99845.66;4960184;28;20089;-75
2022/01/08 04:39:28;;;;;;;11.07;5.60;;;;;;;3.44;100.00;99853.63;4974729;28;20089;-75
2022/01/08 04:42:11;;;;;;;13.85;6.45;;;;;;;3.38;100.00;99856.72;4974827;28;20237;-75
2022/01/08 04:44:55;;;;;;;12.50;5.85;;;;;;;3.34;100.00;99880.75;4946648;28;20073;-75
2022/01/08 04:47:41;;;;;;;8.38;4.38;;;;;;;3.39;100.00;99897.06;4960000;28;20130;-75
2022/01/08 04:50:26;;;;;;;7.55;4.00;;;;;;;3.34;100.00;99904.47;4974566;28;20053;-76
2022/01/08 04:53:10;;;;;;;4.60;2.58;;;;;;;3.34;100.00;99930.81;4946296;28;20490;-75
2022/01/08 04:55:54;;;;;;;5.40;2.50;;;;;;;3.35;100.00;99946.50;4959824;28;20050;-75
2022/01/08 04:58:38;;;;;;;2.55;1.75;;;;;;;3.35;100.00;99950.94;4959988;28;20134;-75
2022/01/08 05:01:21;;;;;;;2.63;1.50;;;;;;;3.35;100.00;99972.03;4974483;28;20154;-75
2022/01/08 05:04:05;;;;;;;2.63;1.30;;;;;;;3.37;100.00;99975.38;4974809;28;20197;-75
2022/01/08 05:06:49;;;;;;;;;;;;;;;3.35;100.00;99979.91;4959873;28;20049;-75
2022/01/08 05:09:33;;;;;;;0.45;0.45;;;;;;;3.29;100.00;99990.88;4960573;28;20017;-74
2022/01/08 05:12:17;;;;;;;;;;;;;;;3.24;100.00;100000.91;4960997;28;20089;-75
2022/01/08 05:15:02;;;;;;;0.57;0.50;;;;;;;3.18;100.00;100015.31;4946508;28;20278;-76
2022/01/08 05:17:53;;;;;;;1.48;0.50;;;;;;;3.08;100.00;100019.53;4963744;23;20418;-74
2022/01/08 05:20:41;;;;;;;0.73;0.60;;;;;;;3.07;100.00;100025.75;4993380;28;20529;-75
2022/01/08 05:23:25;;;;;;;0.85;0.70;;;;;;;2.97;100.00;100039.63;4993653;28;20216;-75
2022/01/08 05:26:09;;;;;;;0.60;0.60;;;;;;;2.95;100.00;100046.78;4993885;28;20056;-75
2022/01/08 05:28:53;;;;;;;;;;;;;;;2.90;100.00;100057.63;4978990;28;20126;-69
2022/01/08 05:31:36;;;;;;;1.23;0.93;;;;;;;2.97;100.00;100050.16;4978552;28;19920;-70
2022/01/08 05:34:20;;;;;;;2.42;1.00;;;;;;;2.83;100.00;100064.22;4964929;28;20165;-74
2022/01/08 05:37:05;;;;;;;2.28;0.90;;;;;;;2.80;100.00;100085.50;4993438;28;20127;-74
2022/01/08 05:39:50;;;;;;;;;;;;;;;2.81;100.00;100099.47;4978903;28;20060;-70
2022/01/08 05:42:34;;;;;;;3.47;1.40;;;;;;;2.76;100.00;100115.59;4993126;28;19920;-75
2022/01/08 05:45:18;;;;;;;;;;;;;;;2.86;100.00;100121.97;4965330;28;20050;-74
2022/01/08 05:48:02;;;;;;;1.90;1.40;;;;;;;2.89;100.00;100124.38;4978434;28;19960;-75
2022/01/08 05:50:46;;;;;;;;;;;;;;;2.81;100.00;100128.44;4978726;28;20108;-73
2022/01/08 05:53:30;;;;;;;2.08;1.42;;;;;;;2.84;100.00;100138.78;4964963;28;20095;-74
2022/01/08 05:56:14;;;;;;;5.40;1.48;;;;;;;2.88;100.00;100138.50;4978276;28;20564;-74
2022/01/08 05:58:58;;;;;;;4.70;1.63;;;;;;;2.79;100.00;100146.13;4978123;28;20172;-74
2022/01/08 06:01:42;;;;;;;;;;;;;;;2.75;100.00;100165.69;4978880;28;20049;-74
2022/01/08 06:04:26;;;;;;;5.05;2.03;;;;;;;2.73;100.00;100173.69;4978266;28;20440;-74
2022/01/08 06:07:09;;;;;;;3.30;1.88;;;;;;;2.77;100.00;100175.19;4965010;28;20065;-74
2022/01/08 06:09:53;;;;;;;;;;;;;;;2.73;100.00;100184.22;4965197;28;20048;-74
2022/01/08 06:12:37;;;;;;;7.35;1.90;;;;;;;2.67;100.00;100194.28;4993135;28;19940;-74
2022/01/08 06:15:21;;;;;;;3.38;2.00;;;;;;;2.70;100.00;100196.72;4992894;28;20057;-73
2022/01/08 06:18:05;;;;;;;;;;;;;;;2.51;100.00;100209.38;4978355;28;20048;-74
2022/01/08 06:20:49;;;;;;;4.47;1.65;;;;;;;2.61;100.00;100211.31;4964712;28;19975;-74
2022/01/08 06:23:34;;;;;;;2.22;1.40;;;;;;;2.58;100.00;100215.91;4992816;28;20512;-74
2022/01/08 06:26:17;;;;;;;2.92;1.50;;;;;;;2.50;100.00;100224.28;4978291;28;20057;-73
2022/01/08 06:29:01;;;;;;;;;;;;;;;2.43;100.00;100225.59;4981521;28;20045;-74
2022/01/08 06:31:45;;;;;;;5.20;1.77;;;;;;;2.33;100.00;100235.94;4996983;28;19972;-73
2022/01/08 06:34:29;;;;;;;;;;;;;;;2.32;100.00;100248.25;4982022;28;20163;-74
2022/01/08 06:37:13;;;;;;;2.70;1.35;;;;;;;2.37;100.00;100258.50;4981739;28;19972;-74
2022/01/08 06:39:57;;;;;;;;;;;;;;;2.45;100.00;100267.59;4968666;28;20053;-75
2022/01/08 06:42:41;;;;;;;5.07;1.75;;;;;;;2.46;100.00;100269.28;4981730;28;19937;-74
2022/01/08 06:45:25;;;;;;;;;;;;;;;2.46;100.00;100274.56;4982082;28;20053;-74
2022/01/08 06:48:09;;;;;;;2.47;1.70;;;;;;;2.28;100.00;100280.94;4981529;28;20028;-74
2022/01/08 06:50:52;;;;;;;;;;;;;;;2.45;100.00;100288.66;4981866;28;20263;-74
2022/01/08 06:53:37;;;;;;;3.55;1.88;;;;;;;2.36;100.00;100291.00;4981403;28;20023;-74
2022/01/08 06:56:20;;;;;;;;;;;;;;;2.18;100.00;100295.56;4981726;28;20093;-74
2022/01/08 06:59:04;;;;;;;6.63;1.98;;;;;;;2.06;100.00;100311.25;4981258;28;19956;-74
2022/01/08 07:01:48;;;;;;;;;;;;;;;2.02;100.00;100310.56;4996533;28;20053;-73
2022/01/08 07:04:32;;;;;;;7.60;2.20;;;;;;;2.06;100.00;100332.28;4981359;28;20380;-74
2022/01/08 07:07:16;;;;;;;;;;;;;;;2.06;100.00;100322.59;4996610;28;20112;-73
2022/01/08 07:10:00;;;;;;;6.78;2.45;;;;;;;2.08;100.00;100340.91;4981231;28;20389;-74
2022/01/08 07:12:44;;;;;;;7.35;2.70;;;;;;;2.05;100.00;100352.44;4967337;28;20152;-73
2022/01/08 07:15:28;;;;;;;8.63;2.80;;;;;;;2.01;100.00;100350.94;4981169;28;20053;-74
2022/01/08 07:18:12;;;;;;;;;;;;;;;2.09;100.00;100361.00;4981064;28;20481;-74
2022/01/08 07:20:56;;;;;;;11.45;2.90;;;;;;;2.07;100.00;100376.03;4981131;28;19960;-73
2022/01/08 07:23:39;;;;;;;;;;;;;;;2.08;100.00;100381.19;4996261;28;20053;-71
2022/01/08 07:26:24;;;;;;;17.13;3.55;;;;;;;2.11;100.00;100391.56;4981174;28;20301;-71
2022/01/08 07:29:07;;;;;;;11.25;3.88;;;;;;;2.14;100.00;100403.66;4995565;28;20109;-73
2022/01/08 07:31:51;;;;;;;8.82;3.45;;;;;;;2.18;100.00;100411.28;4967035;28;20053;-73
2022/01/08 07:34:35;;;;;;;10.75;3.85;;;;;;;2.19;100.00;100425.28;4980549;28;20084;-73
2022/01/08 07:37:19;;;;;;;;;;;;;;;2.18;100.00;100440.22;4996080;28;20398;-72
2022/01/08 07:40:04;;;;;;;8.13;3.90;;;;;;;2.26;100.00;100440.63;4979679;28;20023;-73
2022/01/08 07:42:48;;;;;;;10.95;3.95;;;;;;;2.26;100.00;100445.06;4980533;28;20264;-73
2022/01/08 07:45:32;;;;;;;6.28;3.45;;;;;;;2.31;100.00;100446.47;4980657;28;20128;-70
2022/01/08 07:48:16;;;;;;;;;;;;;;;2.34;100.00;100448.94;4980952;28;20057;-73
2022/01/08 07:51:00;;;;;;;10.80;3.85;;;;;;;2.34;100.00;100450.69;4980520;28;19941;-73
2022/01/08 07:53:44;;;;;;;8.32;2.60;;;;;;;2.45;100.00;100459.69;4995089;28;20053;-73
2022/01/08 07:56:28;;;;;;;;;;;;;;;2.44;100.00;100461.44;4995610;28;20180;-72
2022/01/08 07:59:11;;;;;;;10.33;3.07;;;;;;;2.43;100.00;100464.19;4966423;28;20067;-73
2022/01/08 08:01:55;;;;;;;;;;;;;;;2.45;100.00;100464.94;4995313;28;20636;-73
2022/01/08 08:04:40;;;;;;;6.45;2.75;;;;;;;2.50;100.00;100453.22;4980451;28;20009;-74
2022/01/08 08:07:28;;;;;;;3.78;2.40;;;;;;;2.67;100.00;100460.09;4995371;28;20092;-73
2022/01/08 08:10:15;;;;;;;8.45;3.83;;;;;;;2.69;100.00;100468.75;4980357;28;20101;-74
2022/01/08 08:13:00;;;;;;;5.03;2.35;;;;;;;2.69;100.00;100467.00;4981824;28;20509;-68
2022/01/08 08:15:44;;;;;;;4.63;2.83;;;;;;;2.75;100.00;100471.03;4970856;28;20525;-73
2022/01/08 08:18:28;;;;;;;5.30;2.50;;;;;;;2.81;100.00;100473.28;4967464;28;20058;-71
2022/01/08 08:21:12;;;;;;;4.70;2.65;;;;;;;2.88;100.00;100479.91;4980109;28;20414;-73
2022/01/08 08:23:56;;;;;;;4.70;2.55;;;;;;;2.98;100.00;100481.06;4980161;28;20414;-73
2022/01/08 08:26:40;;;;;;;9.80;2.45;;;;;;;3.07;100.00;100485.75;4994594;28;20402;-73
2022/01/08 08:29:24;;;;;;;8.50;3.25;;;;;;;3.01;100.00;100494.03;4994253;28;20417;-70
2022/01/08 08:32:08;;;;;;;;;;;;;;;3.02;100.00;100501.00;4980416;28;20049;-72
2022/01/08 08:34:51;;;;;;;3.85;2.60;;;;;;;3.04;100.00;100499.13;4979751;28;19963;-72
2022/01/08 08:37:37;;;;;;;5.30;2.72;;;;;;;3.08;100.00;100498.00;4965875;28;20517;-72
2022/01/08 08:40:21;;;;;;;5.07;2.75;;;;;;;3.08;100.00;100516.44;4994293;28;20159;-72
2022/01/08 08:43:04;;;;;;;;;;;;;;;3.10;100.00;100510.13;4979709;28;20085;-72
2022/01/08 08:45:50;;;;;;;9.82;2.85;;;;;;;3.14;100.00;100500.28;4994211;28;20020;-71
2022/01/08 08:48:34;;;;;;;4.43;2.65;;;;;;;3.22;100.00;100505.91;4965470;28;20108;-74
2022/01/08 08:51:18;;;;;;;7.43;3.33;;;;;;;3.14;100.00;100513.44;4979227;28;20053;-72
2022/01/08 08:54:02;;;;;;;8.90;3.13;;;;;;;3.26;100.00;100504.78;4979395;28;20053;-72
2022/01/08 08:56:46;;;;;;;3.88;2.85;;;;;;;3.23;100.00;100508.47;4994073;28;20057;-71
2022/01/08 08:59:30;;;;;;;;;;;;;;;3.27;100.00;100512.63;4979646;28;20138;-71
2022/01/08 09:02:14;;;;;;;6.93;3.25;;;;;;;3.24;100.00;100514.59;4993795;28;19948;-71
2022/01/08 09:04:57;;;;;;;6.68;2.80;;;;;;;3.17;100.00;100500.94;4993785;28;20172;-72
2022/01/08 09:07:41;;;;;;;6.47;2.40;;;;;;;3.30;100.00;100507.16;4979095;28;20199;-74
2022/01/08 09:10:25;;;;;;;;;;;;;;;3.17;100.00;100511.47;4979226;28;20045;-73
2022/01/08 09:13:09;;;;;;;6.53;3.08;;;;;;;3.15;100.00;100517.78;4979067;28;20289;-72
2022/01/08 09:15:54;;;;;;;4.88;3.20;;;;;;;3.08;100.00;100522.56;4979217;28;20057;-73
2022/01/08 09:18:39;;;;;;;4.25;2.70;;;;;;;3.12;100.00;100523.22;4993525;28;20517;-73
2022/01/08 09:21:24;;;;;;;7.35;3.08;;;;;;;3.18;100.00;100533.38;4965536;28;20050;-73
2022/01/08 09:24:09;;;;;;;10.68;2.90;;;;;;;3.22;100.00;100538.38;4978705;28;20100;-71
2022/01/08 09:26:53;;;;;;;4.45;2.80;;;;;;;3.26;100.00;100544.31;4965262;28;20048;-73
2022/01/08 09:29:37;;;;;;;5.88;2.65;;;;;;;3.30;100.00;100553.72;4965308;28;20092;-73
2022/01/08 09:32:23;;;;;;;6.05;2.95;;;;;;;3.38;100.00;100549.69;4993519;28;20049;-70
2022/01/08 09:35:07;;;;;;;12.48;3.13;;;;;;;3.42;100.00;100542.44;4978988;28;20509;-73
2022/01/08 09:37:52;;;;;;;6.47;3.00;;;;;;;3.44;100.00;100551.94;4965161;28;20056;-74
2022/01/08 09:40:37;;;;;;;9.50;3.20;;;;;;;3.48;100.00;100547.34;4978633;28;20049;-73
2022/01/08 09:43:21;;;;;;;6.70;3.40;;;;;;;3.48;100.00;100544.72;4978701;28;20069;-73
2022/01/08 09:46:05;;;;;;;10.57;3.90;;;;;;;3.48;100.00;100542.06;4993427;28;20049;-73
2022/01/08 09:48:49;;;;;;;5.85;3.22;;;;;;;3.45;100.00;100548.38;4978310;28;20041;-72
2022/01/08 09:51:34;;;;;;;8.10;3.50;;;;;;;3.47;100.00;100535.13;4978617;28;20092;-73
2022/01/08 09:54:17;;;;;;;5.68;3.58;;;;;;;3.49;100.00;100541.13;4978281;28;20068;-73
2022/01/08 09:57:01;;;;;;;;;;;;;;;3.51;100.00;100537.47;4993579;28;20049;-73
2022/01/08 09:59:45;;;;;;;4.57;2.70;;;;;;;3.65;100.00;100532.19;4978451;28;20023;-61
2022/01/08 10:02:29;;;;;;;7.43;3.05;;;;;;;3.63;100.00;100538.50;4993889;28;20057;-74
2022/01/08 10:05:15;;;;;;;8.57;3.78;;;;;;;3.68;100.00;100526.75;4982214;28;20052;-73
2022/01/08 10:08:00;;;;;;;6.03;3.22;;;;;;;3.73;100.00;100527.28;4982074;28;20045;-73
2022/01/08 10:11:01;;;;;;;7.60;3.30;;;;;;;3.93;100.00;100523.41;4997083;28;20422;-74
2022/01/08 10:13:47;;;;;;;5.32;2.45;;;;;;;4.04;100.00;100513.03;4968313;28;20049;-73
2022/01/08 10:19:50;;;;;;;10.80;2.53;;;;;;;3.96;100.00;100518.78;4987644;28;20487;-73
2022/01/08 10:22:34;;;;;;;6.47;2.42;;;;;;;3.98;100.00;100514.25;4982329;28;20112;-73
2022/01/08 10:25:18;;;;;;;4.78;2.17;;;;;;;3.98;100.00;100505.50;4996798;28;20105;-73
2022/01/08 10:28:02;;;;;;;5.03;2.42;;;;;;;4.22;100.00;100509.22;4981923;28;20527;-72
2022/01/08 10:30:46;;;;;;;3.45;2.03;;;;;;;4.32;100.00;100505.03;4981759;28;20053;-73
2022/01/08 10:33:30;;;;;;;4.38;2.20;;;;;;;4.31;100.00;100506.84;4967896;28;20133;-71
2022/01/08 10:36:15;;;;;;;6.90;2.33;;;;;;;4.84;100.00;100500.66;4981898;28;20092;-74
2022/01/08 10:39:11;;;;;;;7.38;2.40;;;;;;;4.50;100.00;100503.84;4996576;28;20049;-73
2022/01/08 10:41:58;;;;;;;7.68;2.50;;;;;;;4.57;100.00;100491.94;4967932;28;20054;-74
2022/01/08 10:44:43;;;;;;;5.80;2.10;;;;;;;4.46;100.00;100497.09;4968274;28;20080;-73
2022/01/08 10:47:27;;;;;;;4.00;2.58;;;;;;;4.33;100.00;100490.88;4996075;28;20049;-72
2022/01/08 10:50:11;;;;;;;6.38;2.15;;;;;;;4.38;100.00;100488.81;4967964;28;20458;-72
2022/01/08 10:52:57;;;;;;;4.78;2.05;;;;;;;4.53;100.00;100495.72;4996117;28;20134;-72
2022/01/08 10:55:42;;;;;;;7.82;2.63;;;;;;;4.40;100.00;100492.19;4981972;28;20053;-72
2022/01/08 10:58:43;;;;;;;8.25;2.42;;;;;;;4.31;100.00;100484.88;4981021;28;20399;-73
2022/01/08 11:01:40;;;;;;;10.25;3.20;;;;;;;4.36;100.00;100485.44;4981381;28;20411;-73
2022/01/08 11:04:31;;;;;;;5.90;2.70;;;;;;;4.24;100.00;100480.94;4996048;28;20144;-72
2022/01/08 11:07:17;;;;;;;7.30;2.80;;;;;;;4.13;100.00;100484.28;4996041;28;20057;-73
2022/01/08 11:10:08;;;;;;;4.78;2.67;;;;;;;4.20;100.00;100474.16;4996106;28;20386;-74
2022/01/08 11:12:51;;;;;;;8.10;3.47;;;;;;;4.06;100.00;100476.84;4981197;28;20065;-73
2022/01/08 11:15:48;;;;;;;4.97;2.75;;;;;;;4.11;100.00;100466.84;4980071;28;20045;-74
2022/01/08 11:18:33;;;;;;;7.30;3.00;;;;;;;4.07;100.00;100457.44;4982690;28;20056;-73
2022/01/08 11:21:17;;;;;;;6.75;2.63;;;;;;;4.14;100.00;100453.44;4996135;28;20104;-73
2022/01/08 11:24:02;;;;;;;6.28;2.85;;;;;;;4.10;100.00;100447.53;4967221;28;20088;-72
2022/01/08 11:26:46;;;;;;;9.77;3.13;;;;;;;4.16;100.00;100438.38;4981010;28;20131;-72
2022/01/08 11:29:31;;;;;;;6.97;2.85;;;;;;;4.15;100.00;100434.06;4980942;28;20166;-72
2022/01/08 11:32:16;;;;;;;6.47;3.22;;;;;;;4.12;100.00;100431.59;4980593;28;20525;-71
2022/01/08 11:35:00;;;;;;;5.88;2.50;;;;;;;4.20;100.00;100429.31;4980801;28;20429;-71
2022/01/08 11:37:49;;;;;;;8.32;3.03;;;;;;;4.05;100.00;100427.69;5004959;22;20053;-74
2022/01/08 11:40:36;;;;;;;7.13;2.75;;;;;;;4.07;100.00;100426.63;4980830;28;20141;-73
2022/01/08 11:43:23;;;;;;;5.68;3.08;;;;;;;4.10;100.00;100415.03;4980706;28;20053;-73
2022/01/08 11:46:08;;;;;;;6.90;3.00;;;;;;;4.05;100.00;100417.13;4981459;28;20053;-73
2022/01/08 11:48:54;;;;;;;9.60;3.33;;;;;;;4.02;100.00;100404.13;4958139;28;20050;-73
2022/01/08 11:51:38;;;;;;;5.63;3.00;;;;;;;4.10;100.00;100405.34;4961813;28;20142;-73
2022/01/08 11:54:39;;;;;;;;;;;;;;;4.10;100.00;100394.78;4975726;28;20050;-73
2022/01/08 11:57:29;;;;;;;5.65;2.90;;;;;;;4.24;100.00;100383.28;4961155;28;19973;-73
2022/01/08 12:00:47;;;;;;;6.22;2.70;;;;;;;4.19;100.00;100378.34;4975635;28;20053;-73
2022/01/08 12:03:49;;;;;;;4.90;2.67;;;;;;;4.33;100.00;100370.34;4975979;28;20054;-73
2022/01/08 12:06:36;;;;;;;6.15;2.67;;;;;;;4.25;100.00;100371.81;4975738;28;20053;-73
2022/01/08 12:09:22;;;;;;;5.75;2.85;;;;;;;4.24;100.00;100375.38;4974596;28;20125;-73
2022/01/08 12:12:06;;;;;;;6.43;3.00;;;;;;;4.22;100.00;100356.16;4974719;28;20069;-73
2022/01/08 12:14:50;;;;;;;;;;;;;;;4.30;100.00;100345.94;4961515;28;20058;-73
2022/01/08 12:17:54;;;;;;;5.77;3.17;;;;;;;4.37;100.00;100334.03;4947301;28;19921;-74
2022/01/08 12:20:47;;;;;;;9.68;2.80;;;;;;;4.35;100.00;100320.94;4960329;28;20292;-73
2022/01/08 12:23:37;;;;;;;5.30;2.50;;;;;;;4.33;100.00;100321.97;4974426;28;20045;-73
2022/01/08 12:26:21;;;;;;;9.88;3.28;;;;;;;4.23;100.00;100315.63;4960326;28;20065;-73
2022/01/08 12:29:07;;;;;;;4.15;2.90;;;;;;;4.17;100.00;100292.31;4975009;28;20145;-73
2022/01/08 12:31:51;;;;;;;5.53;2.65;;;;;;;4.17;100.00;100294.97;4974935;28;20506;-73
2022/01/08 12:34:44;;;;;;;4.85;2.50;;;;;;;4.25;100.00;100284.75;4973901;28;20081;-74
2022/01/08 12:37:38;;;;;;;7.28;2.70;;;;;;;4.33;100.00;100283.25;4974173;28;20399;-74
2022/01/08 12:40:41;;;;;;;3.50;2.60;;;;;;;4.21;100.00;100275.31;4960004;28;20113;-73
2022/01/08 12:43:31;;;;;;;5.68;2.40;;;;;;;4.30;100.00;100264.16;4973958;28;20101;-74
2022/01/08 12:46:18;;;;;;;4.50;2.72;;;;;;;4.40;100.00;100262.56;4973766;28;20117;-74
2022/01/08 12:49:12;;;;;;;6.03;2.38;;;;;;;4.33;100.00;100264.78;4974966;28;20051;-74
2022/01/08 12:51:57;;;;;;;7.30;2.30;;;;;;;4.48;100.00;100252.31;4973850;28;20050;-74
2022/01/08 12:54:43;;;;;;;7.63;2.83;;;;;;;4.60;100.00;100238.28;4974808;28;20101;-74
2022/01/08 12:57:30;;;;;;;4.50;2.35;;;;;;;4.83;100.00;100237.47;4960108;28;20503;-74
2022/01/08 13:00:14;;;;;;;3.38;2.55;;;;;;;5.03;100.00;100232.47;4959799;28;20522;-74
2022/01/08 13:02:58;;;;;;;;;;;;;;;4.97;100.00;100224.16;4973785;28;20518;-74
2022/01/08 13:05:42;;;;;;;4.72;2.75;;;;;;;5.00;100.00;100209.75;4974395;28;19920;-74
2022/01/08 13:08:28;;;;;;;;;;;;;;;4.95;100.00;100206.59;4974789;28;20234;-74
2022/01/08 13:11:20;;;;;;;3.92;2.67;;;;;;;4.93;100.00;100198.91;4959930;28;20426;-73
2022/01/08 13:14:14;;;;;;;4.38;2.28;;;;;;;5.04;100.00;100189.25;4959860;28;20521;-74
2022/01/08 13:16:59;;;;;;;4.30;2.30;;;;;;;5.23;99.09;100187.78;4974395;28;20046;-74
2022/01/08 13:19:43;;;;;;;3.35;2.20;;;;;;;5.16;95.05;100183.06;4959472;28;20057;-74
2022/01/08 13:22:27;;;;;;;;;;;;;;;4.99;90.79;100188.72;4974806;28;20100;-73
2022/01/08 13:25:11;;;;;;;2.47;1.73;;;;;;;5.01;89.94;100176.28;4959816;28;19940;-73